sensor_id;sensor_type;location;lat;lon;timestamp;P1;durP1;ratioP1;P2;durP2;ratioP2
11604;SDS011;5858;43.076;25.626;2023-02-22T00:01:22;6.33;;;2.93;;
11604;SDS011;5858;43.076;25.626;2023-02-22T00:04:02;3.33;;;2.47;;
11604;SDS011;5858;43.076;25.626;2023-02-22T00:06:34;5.53;;;2.63;;
11604;SDS011;5858;43.076;25.626;2023-02-22T00:09:03;3.63;;;2.50;;
11604;SDS011;5858;43.076;25.626;2023-02-22T00:12:49;4.53;;;2.60;;
11604;SDS011;5858;43.076;25.626;2023-02-22T00:14:46;3.67;;;2.30;;
11604;SDS011;5858;43.076;25.626;2023-02-22T00:24:20;5.67;;;2.80;;
11604;SDS011;5858;43.076;25.626;2023-02-22T00:26:59;3.57;;;2.37;;
11604;SDS011;5858;43.076;25.626;2023-02-22T00:40:11;4.37;;;2.47;;
11604;SDS011;5858;43.076;25.626;2023-02-22T00:42:59;3.50;;;2.67;;
11604;SDS011;5858;43.076;25.626;2023-02-22T00:45:30;4.83;;;3.00;;
11604;SDS011;5858;43.076;25.626;2023-02-22T00:48:05;2.90;;;2.33;;
11604;SDS011;5858;43.076;25.626;2023-02-22T00:50:33;6.17;;;2.87;;
11604;SDS011;5858;43.076;25.626;2023-02-22T00:53:04;3.80;;;2.67;;
11604;SDS011;5858;43.076;25.626;2023-02-22T00:55:36;3.63;;;2.80;;
11604;SDS011;5858;43.076;25.626;2023-02-22T00:58:05;2.80;;;2.23;;
11604;SDS011;5858;43.076;25.626;2023-02-22T01:00:34;4.27;;;2.53;;
11604;SDS011;5858;43.076;25.626;2023-02-22T01:03:03;5.60;;;2.73;;
11604;SDS011;5858;43.076;25.626;2023-02-22T01:05:31;5.87;;;3.20;;
11604;SDS011;5858;43.076;25.626;2023-02-22T01:15:20;5.17;;;3.87;;
11604;SDS011;5858;43.076;25.626;2023-02-22T01:17:56;6.40;;;4.43;;
11604;SDS011;5858;43.076;25.626;2023-02-22T01:23:30;8.57;;;4.30;;
11604;SDS011;5858;43.076;25.626;2023-02-22T01:25:57;7.13;;;4.83;;
11604;SDS011;5858;43.076;25.626;2023-02-22T01:28:29;8.67;;;5.40;;
11604;SDS011;5858;43.076;25.626;2023-02-22T01:30:58;9.33;;;5.77;;
11604;SDS011;5858;43.076;25.626;2023-02-22T01:33:28;7.33;;;5.00;;
11604;SDS011;5858;43.076;25.626;2023-02-22T01:36:04;7.63;;;5.37;;
11604;SDS011;5858;43.076;25.626;2023-02-22T01:38:35;10.10;;;5.40;;
11604;SDS011;5858;43.076;25.626;2023-02-22T01:41:02;8.27;;;5.03;;
11604;SDS011;5858;43.076;25.626;2023-02-22T01:43:33;8.40;;;5.17;;
11604;SDS011;5858;43.076;25.626;2023-02-22T01:46:02;8.10;;;5.47;;
11604;SDS011;5858;43.076;25.626;2023-02-22T01:48:38;8.33;;;5.87;;
11604;SDS011;5858;43.076;25.626;2023-02-22T01:51:12;8.13;;;5.67;;
11604;SDS011;5858;43.076;25.626;2023-02-22T01:53:44;7.37;;;5.70;;
11604;SDS011;5858;43.076;25.626;2023-02-22T01:56:18;11.27;;;5.87;;
11604;SDS011;5858;43.076;25.626;2023-02-22T01:58:57;8.00;;;4.43;;
11604;SDS011;5858;43.076;25.626;2023-02-22T02:01:31;7.97;;;4.63;;
11604;SDS011;5858;43.076;25.626;2023-02-22T02:04:05;7.63;;;4.53;;
11604;SDS011;5858;43.076;25.626;2023-02-22T02:06:36;4.80;;;4.17;;
11604;SDS011;5858;43.076;25.626;2023-02-22T02:09:09;7.03;;;4.93;;
11604;SDS011;5858;43.076;25.626;2023-02-22T02:11:40;6.20;;;4.63;;
11604;SDS011;5858;43.076;25.626;2023-02-22T02:14:08;7.67;;;5.23;;
11604;SDS011;5858;43.076;25.626;2023-02-22T02:16:42;7.97;;;5.30;;
11604;SDS011;5858;43.076;25.626;2023-02-22T02:19:14;11.23;;;6.33;;
11604;SDS011;5858;43.076;25.626;2023-02-22T02:21:59;6.63;;;4.67;;
11604;SDS011;5858;43.076;25.626;2023-02-22T02:28:00;8.20;;;4.93;;
11604;SDS011;5858;43.076;25.626;2023-02-22T02:30:47;10.60;;;4.90;;
11604;SDS011;5858;43.076;25.626;2023-02-22T02:33:46;5.50;;;4.33;;
11604;SDS011;5858;43.076;25.626;2023-02-22T02:36:23;5.07;;;3.73;;
11604;SDS011;5858;43.076;25.626;2023-02-22T02:38:59;5.93;;;3.93;;
11604;SDS011;5858;43.076;25.626;2023-02-22T02:41:34;4.27;;;3.63;;
11604;SDS011;5858;43.076;25.626;2023-02-22T02:44:07;6.77;;;4.20;;
11604;SDS011;5858;43.076;25.626;2023-02-22T02:46:43;5.70;;;4.37;;
11604;SDS011;5858;43.076;25.626;2023-02-22T02:49:18;6.77;;;4.20;;
11604;SDS011;5858;43.076;25.626;2023-02-22T02:51:48;4.90;;;4.13;;
11604;SDS011;5858;43.076;25.626;2023-02-22T02:54:19;5.83;;;4.50;;
11604;SDS011;5858;43.076;25.626;2023-02-22T02:56:51;7.33;;;5.33;;
11604;SDS011;5858;43.076;25.626;2023-02-22T02:59:24;10.07;;;4.77;;
11604;SDS011;5858;43.076;25.626;2023-02-22T03:01:56;11.00;;;4.60;;
11604;SDS011;5858;43.076;25.626;2023-02-22T03:04:53;9.77;;;4.67;;
11604;SDS011;5858;43.076;25.626;2023-02-22T03:07:37;9.63;;;4.70;;
11604;SDS011;5858;43.076;25.626;2023-02-22T03:10:22;7.60;;;4.60;;
11604;SDS011;5858;43.076;25.626;2023-02-22T03:13:03;6.93;;;4.00;;
11604;SDS011;5858;43.076;25.626;2023-02-22T03:15:42;6.33;;;4.30;;
11604;SDS011;5858;43.076;25.626;2023-02-22T03:18:17;5.73;;;3.97;;
11604;SDS011;5858;43.076;25.626;2023-02-22T03:20:57;6.77;;;3.80;;
11604;SDS011;5858;43.076;25.626;2023-02-22T03:23:28;7.00;;;4.83;;
11604;SDS011;5858;43.076;25.626;2023-02-22T03:26:02;7.77;;;4.17;;
11604;SDS011;5858;43.076;25.626;2023-02-22T03:28:33;5.63;;;3.83;;
11604;SDS011;5858;43.076;25.626;2023-02-22T03:31:06;6.30;;;4.00;;
11604;SDS011;5858;43.076;25.626;2023-02-22T03:33:39;4.70;;;3.90;;
11604;SDS011;5858;43.076;25.626;2023-02-22T03:36:11;6.77;;;4.60;;
11604;SDS011;5858;43.076;25.626;2023-02-22T03:38:42;5.67;;;4.13;;
11604;SDS011;5858;43.076;25.626;2023-02-22T03:41:11;6.10;;;4.23;;
11604;SDS011;5858;43.076;25.626;2023-02-22T03:43:43;9.80;;;4.20;;
11604;SDS011;5858;43.076;25.626;2023-02-22T03:46:13;10.50;;;4.80;;
11604;SDS011;5858;43.076;25.626;2023-02-22T03:48:45;7.33;;;4.57;;
11604;SDS011;5858;43.076;25.626;2023-02-22T03:51:23;7.30;;;4.27;;
11604;SDS011;5858;43.076;25.626;2023-02-22T03:53:50;6.77;;;5.03;;
11604;SDS011;5858;43.076;25.626;2023-02-22T03:56:19;8.60;;;4.40;;
11604;SDS011;5858;43.076;25.626;2023-02-22T03:58:49;7.10;;;4.27;;
11604;SDS011;5858;43.076;25.626;2023-02-22T04:01:17;7.83;;;4.13;;
11604;SDS011;5858;43.076;25.626;2023-02-22T04:03:47;9.47;;;4.80;;
11604;SDS011;5858;43.076;25.626;2023-02-22T04:06:15;6.47;;;4.10;;
11604;SDS011;5858;43.076;25.626;2023-02-22T04:08:44;8.13;;;5.07;;
11604;SDS011;5858;43.076;25.626;2023-02-22T04:11:11;11.37;;;4.83;;
11604;SDS011;5858;43.076;25.626;2023-02-22T04:13:38;9.00;;;5.10;;
11604;SDS011;5858;43.076;25.626;2023-02-22T04:16:06;8.07;;;5.13;;
11604;SDS011;5858;43.076;25.626;2023-02-22T04:18:36;11.00;;;5.60;;
11604;SDS011;5858;43.076;25.626;2023-02-22T04:21:03;7.57;;;4.53;;
11604;SDS011;5858;43.076;25.626;2023-02-22T04:23:31;8.70;;;5.53;;
11604;SDS011;5858;43.076;25.626;2023-02-22T04:26:01;6.97;;;5.37;;
11604;SDS011;5858;43.076;25.626;2023-02-22T04:28:28;10.27;;;4.87;;
11604;SDS011;5858;43.076;25.626;2023-02-22T04:30:56;18.63;;;6.50;;
11604;SDS011;5858;43.076;25.626;2023-02-22T04:33:23;11.77;;;5.00;;
11604;SDS011;5858;43.076;25.626;2023-02-22T04:35:51;9.40;;;4.70;;
11604;SDS011;5858;43.076;25.626;2023-02-22T04:38:23;12.00;;;5.93;;
11604;SDS011;5858;43.076;25.626;2023-02-22T04:40:51;13.17;;;5.17;;
11604;SDS011;5858;43.076;25.626;2023-02-22T04:43:21;11.70;;;4.90;;
11604;SDS011;5858;43.076;25.626;2023-02-22T04:45:49;6.93;;;4.33;;
11604;SDS011;5858;43.076;25.626;2023-02-22T04:48:19;15.40;;;6.33;;
11604;SDS011;5858;43.076;25.626;2023-02-22T04:50:47;14.13;;;5.67;;
11604;SDS011;5858;43.076;25.626;2023-02-22T04:53:17;8.90;;;5.07;;
11604;SDS011;5858;43.076;25.626;2023-02-22T04:55:49;16.13;;;6.63;;
11604;SDS011;5858;43.076;25.626;2023-02-22T04:58:17;13.63;;;7.93;;
11604;SDS011;5858;43.076;25.626;2023-02-22T05:00:46;11.53;;;7.93;;
11604;SDS011;5858;43.076;25.626;2023-02-22T05:03:13;13.70;;;8.13;;
11604;SDS011;5858;43.076;25.626;2023-02-22T05:05:41;16.20;;;7.87;;
11604;SDS011;5858;43.076;25.626;2023-02-22T05:08:08;19.33;;;7.57;;
11604;SDS011;5858;43.076;25.626;2023-02-22T05:10:38;22.80;;;8.10;;
11604;SDS011;5858;43.076;25.626;2023-02-22T05:13:19;14.67;;;5.97;;
11604;SDS011;5858;43.076;25.626;2023-02-22T05:15:49;34.10;;;8.07;;
11604;SDS011;5858;43.076;25.626;2023-02-22T05:18:16;21.13;;;6.60;;
11604;SDS011;5858;43.076;25.626;2023-02-22T05:20:46;35.27;;;8.30;;
11604;SDS011;5858;43.076;25.626;2023-02-22T05:23:17;21.43;;;7.20;;
11604;SDS011;5858;43.076;25.626;2023-02-22T05:25:47;22.70;;;6.93;;
11604;SDS011;5858;43.076;25.626;2023-02-22T05:28:17;24.50;;;6.93;;
11604;SDS011;5858;43.076;25.626;2023-02-22T05:30:46;17.77;;;6.73;;
11604;SDS011;5858;43.076;25.626;2023-02-22T05:33:19;22.93;;;7.10;;
11604;SDS011;5858;43.076;25.626;2023-02-22T05:35:46;28.53;;;7.67;;
11604;SDS011;5858;43.076;25.626;2023-02-22T05:38:14;21.80;;;8.13;;
11604;SDS011;5858;43.076;25.626;2023-02-22T05:40:43;17.60;;;9.63;;
11604;SDS011;5858;43.076;25.626;2023-02-22T05:43:10;31.30;;;8.57;;
11604;SDS011;5858;43.076;25.626;2023-02-22T05:45:41;21.77;;;7.70;;
11604;SDS011;5858;43.076;25.626;2023-02-22T05:48:08;28.10;;;9.83;;
11604;SDS011;5858;43.076;25.626;2023-02-22T05:50:38;22.83;;;9.10;;
11604;SDS011;5858;43.076;25.626;2023-02-22T05:53:06;19.63;;;9.70;;
11604;SDS011;5858;43.076;25.626;2023-02-22T05:55:33;28.63;;;13.10;;
11604;SDS011;5858;43.076;25.626;2023-02-22T05:58:01;28.47;;;14.73;;
11604;SDS011;5858;43.076;25.626;2023-02-22T06:00:30;27.63;;;13.83;;
11604;SDS011;5858;43.076;25.626;2023-02-22T06:02:58;20.97;;;12.40;;
11604;SDS011;5858;43.076;25.626;2023-02-22T06:05:27;25.77;;;13.10;;
11604;SDS011;5858;43.076;25.626;2023-02-22T06:07:59;29.93;;;14.17;;
11604;SDS011;5858;43.076;25.626;2023-02-22T06:10:28;23.23;;;14.43;;
11604;SDS011;5858;43.076;25.626;2023-02-22T06:13:00;35.40;;;20.43;;
11604;SDS011;5858;43.076;25.626;2023-02-22T06:15:37;35.73;;;18.70;;
11604;SDS011;5858;43.076;25.626;2023-02-22T06:22:19;27.03;;;14.67;;
11604;SDS011;5858;43.076;25.626;2023-02-22T06:25:20;25.40;;;14.07;;
11604;SDS011;5858;43.076;25.626;2023-02-22T06:27:51;34.70;;;12.30;;
11604;SDS011;5858;43.076;25.626;2023-02-22T06:30:27;21.77;;;12.10;;
11604;SDS011;5858;43.076;25.626;2023-02-22T06:36:17;28.40;;;11.13;;
11604;SDS011;5858;43.076;25.626;2023-02-22T06:42:38;24.23;;;11.63;;
11604;SDS011;5858;43.076;25.626;2023-02-22T06:46:40;27.80;;;14.27;;
11604;SDS011;5858;43.076;25.626;2023-02-22T06:53:13;30.10;;;13.30;;
11604;SDS011;5858;43.076;25.626;2023-02-22T06:56:03;34.67;;;13.27;;
11604;SDS011;5858;43.076;25.626;2023-02-22T06:59:07;14.80;;;6.27;;
11604;SDS011;5858;43.076;25.626;2023-02-22T07:01:41;12.60;;;5.47;;
11604;SDS011;5858;43.076;25.626;2023-02-22T07:04:09;7.60;;;3.83;;
11604;SDS011;5858;43.076;25.626;2023-02-22T07:06:44;5.17;;;3.60;;
11604;SDS011;5858;43.076;25.626;2023-02-22T07:09:17;7.70;;;3.67;;
11604;SDS011;5858;43.076;25.626;2023-02-22T07:11:51;4.93;;;3.33;;
11604;SDS011;5858;43.076;25.626;2023-02-22T07:14:44;7.33;;;3.30;;
11604;SDS011;5858;43.076;25.626;2023-02-22T07:17:14;4.53;;;3.27;;
11604;SDS011;5858;43.076;25.626;2023-02-22T07:19:47;6.07;;;2.87;;
11604;SDS011;5858;43.076;25.626;2023-02-22T07:22:17;5.37;;;3.00;;
11604;SDS011;5858;43.076;25.626;2023-02-22T07:25:09;8.27;;;3.47;;
11604;SDS011;5858;43.076;25.626;2023-02-22T07:27:44;10.23;;;4.47;;
11604;SDS011;5858;43.076;25.626;2023-02-22T07:30:25;4.30;;;2.80;;
11604;SDS011;5858;43.076;25.626;2023-02-22T07:33:05;4.80;;;3.07;;
11604;SDS011;5858;43.076;25.626;2023-02-22T07:35:50;2.97;;;2.43;;
11604;SDS011;5858;43.076;25.626;2023-02-22T07:38:55;8.43;;;5.23;;
11604;SDS011;5858;43.076;25.626;2023-02-22T07:41:26;6.07;;;2.30;;
11604;SDS011;5858;43.076;25.626;2023-02-22T07:44:07;4.77;;;1.80;;
11604;SDS011;5858;43.076;25.626;2023-02-22T07:49:59;2.73;;;1.60;;
11604;SDS011;5858;43.076;25.626;2023-02-22T07:52:51;3.90;;;2.13;;
11604;SDS011;5858;43.076;25.626;2023-02-22T07:58:53;6.90;;;2.20;;
11604;SDS011;5858;43.076;25.626;2023-02-22T08:02:09;6.23;;;2.10;;
11604;SDS011;5858;43.076;25.626;2023-02-22T08:05:00;2.30;;;1.73;;
11604;SDS011;5858;43.076;25.626;2023-02-22T08:07:28;1.70;;;1.23;;
11604;SDS011;5858;43.076;25.626;2023-02-22T08:09:55;4.20;;;1.87;;
11604;SDS011;5858;43.076;25.626;2023-02-22T08:12:23;5.77;;;2.00;;
11604;SDS011;5858;43.076;25.626;2023-02-22T08:14:53;1.67;;;1.27;;
11604;SDS011;5858;43.076;25.626;2023-02-22T08:17:24;2.30;;;1.13;;
11604;SDS011;5858;43.076;25.626;2023-02-22T08:19:55;8.73;;;2.43;;
11604;SDS011;5858;43.076;25.626;2023-02-22T08:22:27;5.07;;;1.77;;
11604;SDS011;5858;43.076;25.626;2023-02-22T08:24:55;2.60;;;1.20;;
11604;SDS011;5858;43.076;25.626;2023-02-22T08:27:26;1.73;;;1.33;;
11604;SDS011;5858;43.076;25.626;2023-02-22T08:29:54;1.90;;;1.13;;
11604;SDS011;5858;43.076;25.626;2023-02-22T08:32:24;1.97;;;1.50;;
11604;SDS011;5858;43.076;25.626;2023-02-22T08:34:54;1.93;;;1.40;;
11604;SDS011;5858;43.076;25.626;2023-02-22T08:37:26;3.27;;;1.83;;
11604;SDS011;5858;43.076;25.626;2023-02-22T08:40:04;3.87;;;1.30;;
11604;SDS011;5858;43.076;25.626;2023-02-22T08:42:37;4.60;;;1.47;;
11604;SDS011;5858;43.076;25.626;2023-02-22T08:45:15;3.23;;;1.30;;
11604;SDS011;5858;43.076;25.626;2023-02-22T09:04:40;1.77;;;1.20;;
11604;SDS011;5858;43.076;25.626;2023-02-22T09:07:22;1.83;;;1.30;;
11604;SDS011;5858;43.076;25.626;2023-02-22T09:14:12;3.53;;;1.30;;
11604;SDS011;5858;43.076;25.626;2023-02-22T09:16:37;2.20;;;1.27;;
11604;SDS011;5858;43.076;25.626;2023-02-22T09:22:30;2.30;;;1.00;;
11604;SDS011;5858;43.076;25.626;2023-02-22T09:25:16;4.37;;;1.73;;
11604;SDS011;5858;43.076;25.626;2023-02-22T09:28:05;2.30;;;1.40;;
11604;SDS011;5858;43.076;25.626;2023-02-22T09:31:03;2.77;;;1.10;;
11604;SDS011;5858;43.076;25.626;2023-02-22T09:33:31;1.70;;;1.30;;
11604;SDS011;5858;43.076;25.626;2023-02-22T09:36:08;1.53;;;0.90;;
11604;SDS011;5858;43.076;25.626;2023-02-22T09:38:36;2.67;;;1.43;;
11604;SDS011;5858;43.076;25.626;2023-02-22T09:41:23;3.88;;;1.40;;
11604;SDS011;5858;43.076;25.626;2023-02-22T09:44:13;1.93;;;1.13;;
11604;SDS011;5858;43.076;25.626;2023-02-22T09:50:51;2.53;;;1.58;;
11604;SDS011;5858;43.076;25.626;2023-02-22T09:57:23;2.80;;;1.48;;
11604;SDS011;5858;43.076;25.626;2023-02-22T10:00:27;2.73;;;1.23;;
11604;SDS011;5858;43.076;25.626;2023-02-22T10:13:49;2.42;;;1.20;;
11604;SDS011;5858;43.076;25.626;2023-02-22T10:16:37;3.22;;;1.85;;
11604;SDS011;5858;43.076;25.626;2023-02-22T10:19:29;3.03;;;1.30;;
11604;SDS011;5858;43.076;25.626;2023-02-22T10:22:13;1.48;;;0.85;;
11604;SDS011;5858;43.076;25.626;2023-02-22T10:28:18;3.88;;;1.90;;
11604;SDS011;5858;43.076;25.626;2023-02-22T10:30:50;5.30;;;1.23;;
11604;SDS011;5858;43.076;25.626;2023-02-22T10:33:28;1.52;;;1.00;;
11604;SDS011;5858;43.076;25.626;2023-02-22T10:35:57;4.25;;;1.20;;
11604;SDS011;5858;43.076;25.626;2023-02-22T10:38:34;1.38;;;0.80;;
11604;SDS011;5858;43.076;25.626;2023-02-22T10:41:14;4.70;;;1.50;;
11604;SDS011;5858;43.076;25.626;2023-02-22T10:44:10;1.52;;;1.42;;
11604;SDS011;5858;43.076;25.626;2023-02-22T10:46:46;1.52;;;1.33;;
11604;SDS011;5858;43.076;25.626;2023-02-22T10:56:52;1.70;;;1.23;;
11604;SDS011;5858;43.076;25.626;2023-02-22T11:03:29;4.00;;;2.33;;
11604;SDS011;5858;43.076;25.626;2023-02-22T11:05:57;2.00;;;1.10;;
11604;SDS011;5858;43.076;25.626;2023-02-22T11:09:10;4.32;;;1.48;;
11604;SDS011;5858;43.076;25.626;2023-02-22T11:15:42;2.75;;;1.20;;
11604;SDS011;5858;43.076;25.626;2023-02-22T11:18:15;4.65;;;1.70;;
11604;SDS011;5858;43.076;25.626;2023-02-22T11:21:06;2.25;;;1.60;;
11604;SDS011;5858;43.076;25.626;2023-02-22T11:23:59;2.08;;;1.08;;
11604;SDS011;5858;43.076;25.626;2023-02-22T11:26:49;1.25;;;1.15;;
11604;SDS011;5858;43.076;25.626;2023-02-22T11:31:52;2.42;;;1.52;;
11604;SDS011;5858;43.076;25.626;2023-02-22T11:33:09;1.73;;;1.38;;
11604;SDS011;5858;43.076;25.626;2023-02-22T11:36:43;3.22;;;1.45;;
11604;SDS011;5858;43.076;25.626;2023-02-22T11:39:31;1.30;;;1.20;;
11604;SDS011;5858;43.076;25.626;2023-02-22T11:45:24;2.45;;;1.42;;
11604;SDS011;5858;43.076;25.626;2023-02-22T11:51:19;8.00;;;1.73;;
11604;SDS011;5858;43.076;25.626;2023-02-22T11:54:22;2.33;;;1.50;;
11604;SDS011;5858;43.076;25.626;2023-02-22T12:01:06;1.70;;;1.27;;
11604;SDS011;5858;43.076;25.626;2023-02-22T12:07:23;2.45;;;1.52;;
11604;SDS011;5858;43.076;25.626;2023-02-22T12:10:25;3.25;;;1.88;;
11604;SDS011;5858;43.076;25.626;2023-02-22T12:20:29;3.83;;;2.05;;
11604;SDS011;5858;43.076;25.626;2023-02-22T12:23:14;1.90;;;1.50;;
11604;SDS011;5858;43.076;25.626;2023-02-22T12:41:53;4.35;;;2.00;;
11604;SDS011;5858;43.076;25.626;2023-02-22T12:45:06;2.70;;;2.00;;
11604;SDS011;5858;43.076;25.626;2023-02-22T12:48:59;2.35;;;1.90;;
11604;SDS011;5858;43.076;25.626;2023-02-22T12:51:59;3.08;;;1.95;;
11604;SDS011;5858;43.076;25.626;2023-02-22T13:02:39;3.08;;;1.70;;
11604;SDS011;5858;43.076;25.626;2023-02-22T13:04:48;2.92;;;1.55;;
11604;SDS011;5858;43.076;25.626;2023-02-22T13:08:19;2.83;;;1.90;;
11604;SDS011;5858;43.076;25.626;2023-02-22T13:13:42;2.05;;;1.70;;
11604;SDS011;5858;43.076;25.626;2023-02-22T13:16:51;2.38;;;1.83;;
11604;SDS011;5858;43.076;25.626;2023-02-22T13:23:01;2.80;;;1.67;;
11604;SDS011;5858;43.076;25.626;2023-02-22T13:26:04;2.15;;;1.77;;
11604;SDS011;5858;43.076;25.626;2023-02-22T13:28:40;3.83;;;1.92;;
11604;SDS011;5858;43.076;25.626;2023-02-22T13:35:01;5.00;;;2.30;;
11604;SDS011;5858;43.076;25.626;2023-02-22T13:52:23;5.65;;;3.10;;
11604;SDS011;5858;43.076;25.626;2023-02-22T14:36:29;3.08;;;2.30;;
11604;SDS011;5858;43.076;25.626;2023-02-22T14:43:48;4.00;;;2.15;;
11604;SDS011;5858;43.076;25.626;2023-02-22T14:50:13;3.80;;;2.38;;
11604;SDS011;5858;43.076;25.626;2023-02-22T15:35:45;5.13;;;3.40;;
11604;SDS011;5858;43.076;25.626;2023-02-22T15:41:59;6.17;;;2.90;;
11604;SDS011;5858;43.076;25.626;2023-02-22T16:04:49;5.30;;;3.60;;
11604;SDS011;5858;43.076;25.626;2023-02-22T16:08:09;5.57;;;3.77;;
11604;SDS011;5858;43.076;25.626;2023-02-22T16:11:22;5.57;;;3.80;;
11604;SDS011;5858;43.076;25.626;2023-02-22T16:17:22;8.10;;;3.77;;
11604;SDS011;5858;43.076;25.626;2023-02-22T16:30:40;4.97;;;2.67;;
11604;SDS011;5858;43.076;25.626;2023-02-22T16:33:24;5.70;;;2.73;;
11604;SDS011;5858;43.076;25.626;2023-02-22T16:39:46;6.73;;;4.10;;
11604;SDS011;5858;43.076;25.626;2023-02-22T16:42:27;5.00;;;3.23;;
11604;SDS011;5858;43.076;25.626;2023-02-22T16:48:45;4.80;;;3.63;;
11604;SDS011;5858;43.076;25.626;2023-02-22T16:51:20;6.03;;;3.53;;
11604;SDS011;5858;43.076;25.626;2023-02-22T16:54:10;4.90;;;3.80;;
11604;SDS011;5858;43.076;25.626;2023-02-22T17:09:09;9.60;;;4.87;;
11604;SDS011;5858;43.076;25.626;2023-02-22T17:12:04;6.57;;;4.10;;
11604;SDS011;5858;43.076;25.626;2023-02-22T17:28:00;12.57;;;7.47;;
11604;SDS011;5858;43.076;25.626;2023-02-22T17:30:40;14.50;;;8.50;;
11604;SDS011;5858;43.076;25.626;2023-02-22T17:36:45;17.77;;;8.60;;
11604;SDS011;5858;43.076;25.626;2023-02-22T17:46:23;21.70;;;10.50;;
11604;SDS011;5858;43.076;25.626;2023-02-22T17:49:36;16.70;;;11.77;;
11604;SDS011;5858;43.076;25.626;2023-02-22T17:52:48;16.83;;;11.40;;
11604;SDS011;5858;43.076;25.626;2023-02-22T17:56:18;14.63;;;10.80;;
11604;SDS011;5858;43.076;25.626;2023-02-22T17:59:03;14.07;;;10.27;;
11604;SDS011;5858;43.076;25.626;2023-02-22T18:01:44;13.37;;;9.53;;
11604;SDS011;5858;43.076;25.626;2023-02-22T18:04:21;12.63;;;9.43;;
11604;SDS011;5858;43.076;25.626;2023-02-22T18:06:59;14.43;;;9.93;;
11604;SDS011;5858;43.076;25.626;2023-02-22T18:09:43;18.53;;;9.13;;
11604;SDS011;5858;43.076;25.626;2023-02-22T18:12:58;23.13;;;10.67;;
11604;SDS011;5858;43.076;25.626;2023-02-22T18:15:39;16.07;;;11.73;;
11604;SDS011;5858;43.076;25.626;2023-02-22T18:22:04;32.97;;;15.00;;
11604;SDS011;5858;43.076;25.626;2023-02-22T18:31:04;24.10;;;13.13;;
11604;SDS011;5858;43.076;25.626;2023-02-22T18:32:35;23.60;;;11.47;;
11604;SDS011;5858;43.076;25.626;2023-02-22T18:35:32;22.47;;;11.40;;
11604;SDS011;5858;43.076;25.626;2023-02-22T18:45:24;21.40;;;12.47;;
11604;SDS011;5858;43.076;25.626;2023-02-22T18:48:07;24.13;;;13.20;;
11604;SDS011;5858;43.076;25.626;2023-02-22T18:50:42;28.63;;;14.17;;
11604;SDS011;5858;43.076;25.626;2023-02-22T18:53:23;35.60;;;24.47;;
11604;SDS011;5858;43.076;25.626;2023-02-22T18:56:31;30.30;;;17.87;;
11604;SDS011;5858;43.076;25.626;2023-02-22T18:59:20;27.50;;;15.83;;
11604;SDS011;5858;43.076;25.626;2023-02-22T19:02:24;36.40;;;17.90;;
11604;SDS011;5858;43.076;25.626;2023-02-22T19:05:22;38.43;;;23.33;;
11604;SDS011;5858;43.076;25.626;2023-02-22T19:07:54;36.87;;;19.80;;
11604;SDS011;5858;43.076;25.626;2023-02-22T19:10:27;31.07;;;17.37;;
11604;SDS011;5858;43.076;25.626;2023-02-22T19:13:11;41.90;;;22.87;;
11604;SDS011;5858;43.076;25.626;2023-02-22T19:16:11;108.80;;;54.90;;
11604;SDS011;5858;43.076;25.626;2023-02-22T19:19:08;81.93;;;42.73;;
11604;SDS011;5858;43.076;25.626;2023-02-22T19:21:50;61.70;;;31.53;;
11604;SDS011;5858;43.076;25.626;2023-02-22T19:24:22;31.40;;;16.80;;
11604;SDS011;5858;43.076;25.626;2023-02-22T19:26:55;30.00;;;16.97;;
11604;SDS011;5858;43.076;25.626;2023-02-22T19:29:24;26.17;;;14.00;;
11604;SDS011;5858;43.076;25.626;2023-02-22T19:31:57;21.67;;;11.93;;
11604;SDS011;5858;43.076;25.626;2023-02-22T19:37:34;20.47;;;10.47;;
11604;SDS011;5858;43.076;25.626;2023-02-22T19:40:07;13.50;;;6.67;;
11604;SDS011;5858;43.076;25.626;2023-02-22T19:42:42;14.83;;;7.17;;
11604;SDS011;5858;43.076;25.626;2023-02-22T19:45:15;11.20;;;7.67;;
11604;SDS011;5858;43.076;25.626;2023-02-22T19:47:51;12.40;;;7.60;;
11604;SDS011;5858;43.076;25.626;2023-02-22T19:50:20;14.60;;;7.43;;
11604;SDS011;5858;43.076;25.626;2023-02-22T19:52:52;12.77;;;8.00;;
11604;SDS011;5858;43.076;25.626;2023-02-22T19:55:21;12.90;;;7.77;;
11604;SDS011;5858;43.076;25.626;2023-02-22T19:58:07;15.90;;;8.70;;
11604;SDS011;5858;43.076;25.626;2023-02-22T20:00:38;16.40;;;9.77;;
11604;SDS011;5858;43.076;25.626;2023-02-22T20:03:06;23.07;;;13.80;;
11604;SDS011;5858;43.076;25.626;2023-02-22T20:05:37;19.40;;;12.43;;
11604;SDS011;5858;43.076;25.626;2023-02-22T20:08:05;18.53;;;12.37;;
11604;SDS011;5858;43.076;25.626;2023-02-22T20:10:35;20.43;;;13.10;;
11604;SDS011;5858;43.076;25.626;2023-02-22T20:13:02;20.77;;;12.97;;
11604;SDS011;5858;43.076;25.626;2023-02-22T20:15:36;18.23;;;12.40;;
11604;SDS011;5858;43.076;25.626;2023-02-22T20:18:03;27.07;;;14.33;;
11604;SDS011;5858;43.076;25.626;2023-02-22T20:20:31;19.83;;;11.23;;
11604;SDS011;5858;43.076;25.626;2023-02-22T20:23:01;18.50;;;10.97;;
11604;SDS011;5858;43.076;25.626;2023-02-22T20:25:32;22.60;;;11.80;;
11604;SDS011;5858;43.076;25.626;2023-02-22T20:28:07;20.23;;;12.60;;
11604;SDS011;5858;43.076;25.626;2023-02-22T20:30:47;23.13;;;14.33;;
11604;SDS011;5858;43.076;25.626;2023-02-22T20:33:18;29.30;;;16.37;;
11604;SDS011;5858;43.076;25.626;2023-02-22T20:35:56;34.97;;;16.33;;
11604;SDS011;5858;43.076;25.626;2023-02-22T20:38:24;25.43;;;14.60;;
11604;SDS011;5858;43.076;25.626;2023-02-22T20:40:51;29.83;;;16.53;;
11604;SDS011;5858;43.076;25.626;2023-02-22T20:43:22;33.27;;;17.17;;
11604;SDS011;5858;43.076;25.626;2023-02-22T20:45:59;29.97;;;16.00;;
11604;SDS011;5858;43.076;25.626;2023-02-22T20:48:27;31.50;;;16.43;;
11604;SDS011;5858;43.076;25.626;2023-02-22T20:51:07;27.60;;;17.20;;
11604;SDS011;5858;43.076;25.626;2023-02-22T20:53:42;24.90;;;16.73;;
11604;SDS011;5858;43.076;25.626;2023-02-22T20:56:29;28.97;;;17.47;;
11604;SDS011;5858;43.076;25.626;2023-02-22T20:59:03;26.50;;;18.00;;
11604;SDS011;5858;43.076;25.626;2023-02-22T21:01:36;29.70;;;17.73;;
11604;SDS011;5858;43.076;25.626;2023-02-22T21:04:06;29.77;;;17.97;;
11604;SDS011;5858;43.076;25.626;2023-02-22T21:06:37;35.27;;;17.47;;
11604;SDS011;5858;43.076;25.626;2023-02-22T21:09:22;26.30;;;16.87;;
11604;SDS011;5858;43.076;25.626;2023-02-22T21:11:51;26.60;;;16.90;;
11604;SDS011;5858;43.076;25.626;2023-02-22T21:14:22;25.40;;;15.40;;
11604;SDS011;5858;43.076;25.626;2023-02-22T21:16:49;24.57;;;16.37;;
11604;SDS011;5858;43.076;25.626;2023-02-22T21:19:20;27.97;;;15.27;;
11604;SDS011;5858;43.076;25.626;2023-02-22T21:21:51;19.73;;;13.60;;
11604;SDS011;5858;43.076;25.626;2023-02-22T21:24:23;33.93;;;17.00;;
11604;SDS011;5858;43.076;25.626;2023-02-22T21:26:52;27.97;;;17.27;;
11604;SDS011;5858;43.076;25.626;2023-02-22T21:29:24;35.30;;;18.87;;
11604;SDS011;5858;43.076;25.626;2023-02-22T21:31:58;33.00;;;18.70;;
11604;SDS011;5858;43.076;25.626;2023-02-22T21:34:28;27.03;;;16.80;;
11604;SDS011;5858;43.076;25.626;2023-02-22T21:36:56;52.77;;;20.37;;
11604;SDS011;5858;43.076;25.626;2023-02-22T21:39:25;185.77;;;59.43;;
11604;SDS011;5858;43.076;25.626;2023-02-22T21:41:54;83.20;;;32.43;;
11604;SDS011;5858;43.076;25.626;2023-02-22T21:44:25;45.97;;;19.67;;
11604;SDS011;5858;43.076;25.626;2023-02-22T21:46:55;50.03;;;21.20;;
11604;SDS011;5858;43.076;25.626;2023-02-22T21:49:23;41.47;;;19.00;;
11604;SDS011;5858;43.076;25.626;2023-02-22T21:51:54;30.03;;;14.43;;
11604;SDS011;5858;43.076;25.626;2023-02-22T21:54:25;24.90;;;11.00;;
11604;SDS011;5858;43.076;25.626;2023-02-22T21:56:53;18.60;;;10.07;;
11604;SDS011;5858;43.076;25.626;2023-02-22T21:59:21;24.67;;;10.93;;